logo
Search for airport 
image banner adimage banner adimage banner ad
image banner ad

SBQU - Hungaro Helipark

Located in Araguaina, Brazil

ICAO - SBQU, IATA -

Data provided by Airmate  

General information

Coordinates: S7°12'15" W48°13'11"
Elevation is 659 feet MSL.
Magnetic variation is -21.16927077° East
View others Airports in Tocatins

Operational data

Special qualification required
Current time UTC:
Current local time:
Weather at : - ( 0 km )
METAR: UUOK 172001Z AUTO 24004MPS 6000 -DZ ///007/// 19/18 Q1009 RMK QBB220 QFE739/0985
View NOTAMs / SUP AIP / TFR affecting this airport [VIEW]
Communications frequencies: [VIEW]

Runways:

Airport contact information

Address: Araguaina Brazil

Satellite view of SBQU